sensor_id;sensor_type;location;lat;lon;timestamp;P1;durP1;ratioP1;P2;durP2;ratioP2
10293;SDS011;5192;50.328;7.610;2023-05-24T00:00:29;10.43;;;5.00;;
10293;SDS011;5192;50.328;7.610;2023-05-24T00:02:57;10.60;;;5.00;;
10293;SDS011;5192;50.328;7.610;2023-05-24T00:05:25;10.70;;;4.90;;
10293;SDS011;5192;50.328;7.610;2023-05-24T00:07:57;12.73;;;5.43;;
10293;SDS011;5192;50.328;7.610;2023-05-24T00:10:25;6.50;;;4.77;;
10293;SDS011;5192;50.328;7.610;2023-05-24T00:12:52;13.53;;;4.93;;
10293;SDS011;5192;50.328;7.610;2023-05-24T00:15:18;10.47;;;5.20;;
10293;SDS011;5192;50.328;7.610;2023-05-24T00:17:45;7.63;;;4.73;;
10293;SDS011;5192;50.328;7.610;2023-05-24T00:20:13;12.37;;;5.17;;
10293;SDS011;5192;50.328;7.610;2023-05-24T00:22:40;13.60;;;5.30;;
10293;SDS011;5192;50.328;7.610;2023-05-24T00:25:08;10.17;;;4.60;;
10293;SDS011;5192;50.328;7.610;2023-05-24T00:27:35;12.50;;;5.50;;
10293;SDS011;5192;50.328;7.610;2023-05-24T00:30:02;11.17;;;5.10;;
10293;SDS011;5192;50.328;7.610;2023-05-24T00:32:28;9.17;;;4.83;;
10293;SDS011;5192;50.328;7.610;2023-05-24T00:34:55;11.47;;;5.27;;
10293;SDS011;5192;50.328;7.610;2023-05-24T00:37:23;11.73;;;5.20;;
10293;SDS011;5192;50.328;7.610;2023-05-24T00:39:51;10.10;;;5.30;;
10293;SDS011;5192;50.328;7.610;2023-05-24T00:42:16;12.27;;;5.23;;
10293;SDS011;5192;50.328;7.610;2023-05-24T00:44:44;7.77;;;4.47;;
10293;SDS011;5192;50.328;7.610;2023-05-24T00:47:12;12.57;;;4.90;;
10293;SDS011;5192;50.328;7.610;2023-05-24T00:49:41;10.53;;;5.13;;
10293;SDS011;5192;50.328;7.610;2023-05-24T00:52:06;12.90;;;5.00;;
10293;SDS011;5192;50.328;7.610;2023-05-24T00:54:33;9.20;;;4.93;;
10293;SDS011;5192;50.328;7.610;2023-05-24T00:57:00;7.37;;;4.47;;
10293;SDS011;5192;50.328;7.610;2023-05-24T00:59:28;8.70;;;4.07;;
10293;SDS011;5192;50.328;7.610;2023-05-24T01:01:55;12.50;;;4.73;;
10293;SDS011;5192;50.328;7.610;2023-05-24T01:04:22;11.83;;;4.40;;
10293;SDS011;5192;50.328;7.610;2023-05-24T01:17:49;11.87;;;4.40;;
10293;SDS011;5192;50.328;7.610;2023-05-24T01:20:40;10.30;;;4.10;;
10293;SDS011;5192;50.328;7.610;2023-05-24T01:26:02;9.87;;;4.00;;
10293;SDS011;5192;50.328;7.610;2023-05-24T01:29:04;7.53;;;3.90;;
10293;SDS011;5192;50.328;7.610;2023-05-24T01:31:32;10.90;;;4.37;;
10293;SDS011;5192;50.328;7.610;2023-05-24T01:33:59;11.33;;;3.80;;
10293;SDS011;5192;50.328;7.610;2023-05-24T01:36:28;9.17;;;4.20;;
10293;SDS011;5192;50.328;7.610;2023-05-24T01:38:55;10.63;;;4.07;;
10293;SDS011;5192;50.328;7.610;2023-05-24T01:41:38;9.30;;;4.10;;
10293;SDS011;5192;50.328;7.610;2023-05-24T01:44:24;10.00;;;4.37;;
10293;SDS011;5192;50.328;7.610;2023-05-24T01:50:19;11.50;;;4.27;;
10293;SDS011;5192;50.328;7.610;2023-05-24T01:53:03;9.73;;;4.40;;
10293;SDS011;5192;50.328;7.610;2023-05-24T01:55:34;9.67;;;4.40;;
10293;SDS011;5192;50.328;7.610;2023-05-24T01:58:05;10.77;;;3.97;;
10293;SDS011;5192;50.328;7.610;2023-05-24T02:00:36;7.93;;;3.90;;
10293;SDS011;5192;50.328;7.610;2023-05-24T02:03:05;11.37;;;4.50;;
10293;SDS011;5192;50.328;7.610;2023-05-24T02:05:33;10.20;;;4.10;;
10293;SDS011;5192;50.328;7.610;2023-05-24T02:08:03;11.10;;;4.63;;
10293;SDS011;5192;50.328;7.610;2023-05-24T02:10:30;10.80;;;4.07;;
10293;SDS011;5192;50.328;7.610;2023-05-24T02:12:57;8.87;;;4.50;;
10293;SDS011;5192;50.328;7.610;2023-05-24T02:15:25;11.30;;;4.50;;
10293;SDS011;5192;50.328;7.610;2023-05-24T02:17:54;10.60;;;4.77;;
10293;SDS011;5192;50.328;7.610;2023-05-24T02:20:21;8.73;;;3.93;;
10293;SDS011;5192;50.328;7.610;2023-05-24T02:22:49;12.43;;;4.80;;
10293;SDS011;5192;50.328;7.610;2023-05-24T02:25:16;9.77;;;3.57;;
10293;SDS011;5192;50.328;7.610;2023-05-24T02:27:44;9.20;;;4.37;;
10293;SDS011;5192;50.328;7.610;2023-05-24T02:30:13;8.37;;;4.43;;
10293;SDS011;5192;50.328;7.610;2023-05-24T02:32:39;9.83;;;4.13;;
10293;SDS011;5192;50.328;7.610;2023-05-24T02:35:07;8.97;;;4.17;;
10293;SDS011;5192;50.328;7.610;2023-05-24T02:37:33;6.53;;;3.93;;
10293;SDS011;5192;50.328;7.610;2023-05-24T02:40:01;11.73;;;4.33;;
10293;SDS011;5192;50.328;7.610;2023-05-24T02:42:28;11.73;;;4.40;;
10293;SDS011;5192;50.328;7.610;2023-05-24T02:44:55;10.47;;;4.20;;
10293;SDS011;5192;50.328;7.610;2023-05-24T02:47:23;10.37;;;4.60;;
10293;SDS011;5192;50.328;7.610;2023-05-24T02:49:55;7.30;;;4.30;;
10293;SDS011;5192;50.328;7.610;2023-05-24T02:52:21;9.53;;;4.33;;
10293;SDS011;5192;50.328;7.610;2023-05-24T02:54:48;12.67;;;4.20;;
10293;SDS011;5192;50.328;7.610;2023-05-24T02:57:18;10.23;;;4.23;;
10293;SDS011;5192;50.328;7.610;2023-05-24T02:59:44;8.50;;;4.13;;
10293;SDS011;5192;50.328;7.610;2023-05-24T03:02:12;12.90;;;4.50;;
10293;SDS011;5192;50.328;7.610;2023-05-24T03:04:43;10.53;;;4.00;;
10293;SDS011;5192;50.328;7.610;2023-05-24T03:07:11;8.43;;;4.40;;
10293;SDS011;5192;50.328;7.610;2023-05-24T03:09:39;11.33;;;3.80;;
10293;SDS011;5192;50.328;7.610;2023-05-24T03:12:08;12.17;;;3.87;;
10293;SDS011;5192;50.328;7.610;2023-05-24T03:14:34;9.67;;;4.07;;
10293;SDS011;5192;50.328;7.610;2023-05-24T03:17:02;9.87;;;4.37;;
10293;SDS011;5192;50.328;7.610;2023-05-24T03:19:29;11.87;;;4.60;;
10293;SDS011;5192;50.328;7.610;2023-05-24T03:21:56;8.97;;;4.40;;
10293;SDS011;5192;50.328;7.610;2023-05-24T03:24:26;8.10;;;3.97;;
10293;SDS011;5192;50.328;7.610;2023-05-24T03:26:53;10.07;;;4.23;;
10293;SDS011;5192;50.328;7.610;2023-05-24T03:29:21;13.33;;;4.83;;
10293;SDS011;5192;50.328;7.610;2023-05-24T03:31:46;8.37;;;5.40;;
10293;SDS011;5192;50.328;7.610;2023-05-24T03:34:13;12.40;;;5.13;;
10293;SDS011;5192;50.328;7.610;2023-05-24T03:36:40;9.90;;;4.33;;
10293;SDS011;5192;50.328;7.610;2023-05-24T03:39:08;9.07;;;4.43;;
10293;SDS011;5192;50.328;7.610;2023-05-24T03:41:35;13.50;;;4.30;;
10293;SDS011;5192;50.328;7.610;2023-05-24T03:44:01;12.00;;;4.30;;
10293;SDS011;5192;50.328;7.610;2023-05-24T03:46:28;9.80;;;4.20;;
10293;SDS011;5192;50.328;7.610;2023-05-24T03:49:05;10.20;;;4.40;;
10293;SDS011;5192;50.328;7.610;2023-05-24T03:51:32;8.43;;;3.90;;
10293;SDS011;5192;50.328;7.610;2023-05-24T03:54:00;6.90;;;4.27;;
10293;SDS011;5192;50.328;7.610;2023-05-24T03:56:28;8.83;;;4.17;;
10293;SDS011;5192;50.328;7.610;2023-05-24T03:58:55;8.37;;;3.90;;
10293;SDS011;5192;50.328;7.610;2023-05-24T04:01:25;10.10;;;4.73;;
10293;SDS011;5192;50.328;7.610;2023-05-24T04:03:52;11.37;;;4.40;;
10293;SDS011;5192;50.328;7.610;2023-05-24T04:06:20;11.60;;;4.73;;
10293;SDS011;5192;50.328;7.610;2023-05-24T04:08:54;12.37;;;5.20;;
10293;SDS011;5192;50.328;7.610;2023-05-24T04:11:22;15.60;;;5.30;;
10293;SDS011;5192;50.328;7.610;2023-05-24T04:13:52;10.77;;;4.60;;
10293;SDS011;5192;50.328;7.610;2023-05-24T04:16:22;10.37;;;4.83;;
10293;SDS011;5192;50.328;7.610;2023-05-24T04:18:52;9.40;;;5.20;;
10293;SDS011;5192;50.328;7.610;2023-05-24T04:21:23;13.53;;;5.33;;
10293;SDS011;5192;50.328;7.610;2023-05-24T04:23:49;9.80;;;5.03;;
10293;SDS011;5192;50.328;7.610;2023-05-24T04:26:17;12.73;;;5.43;;
10293;SDS011;5192;50.328;7.610;2023-05-24T04:28:44;11.33;;;5.00;;
10293;SDS011;5192;50.328;7.610;2023-05-24T04:31:11;10.23;;;5.30;;
10293;SDS011;5192;50.328;7.610;2023-05-24T04:33:39;11.87;;;5.10;;
10293;SDS011;5192;50.328;7.610;2023-05-24T04:36:07;15.33;;;5.53;;
10293;SDS011;5192;50.328;7.610;2023-05-24T04:38:37;12.90;;;5.23;;
10293;SDS011;5192;50.328;7.610;2023-05-24T04:41:06;9.40;;;5.43;;
10293;SDS011;5192;50.328;7.610;2023-05-24T04:43:32;10.50;;;5.50;;
10293;SDS011;5192;50.328;7.610;2023-05-24T04:46:00;14.60;;;5.10;;
10293;SDS011;5192;50.328;7.610;2023-05-24T04:48:28;10.63;;;5.53;;
10293;SDS011;5192;50.328;7.610;2023-05-24T04:50:55;9.73;;;5.70;;
10293;SDS011;5192;50.328;7.610;2023-05-24T04:53:42;12.20;;;5.37;;
10293;SDS011;5192;50.328;7.610;2023-05-24T04:56:10;12.47;;;5.67;;
10293;SDS011;5192;50.328;7.610;2023-05-24T04:58:40;11.27;;;5.47;;
10293;SDS011;5192;50.328;7.610;2023-05-24T05:01:07;13.70;;;5.30;;
10293;SDS011;5192;50.328;7.610;2023-05-24T05:03:34;11.17;;;5.67;;
10293;SDS011;5192;50.328;7.610;2023-05-24T05:06:02;10.50;;;5.20;;
10293;SDS011;5192;50.328;7.610;2023-05-24T05:08:28;14.43;;;5.27;;
10293;SDS011;5192;50.328;7.610;2023-05-24T05:10:56;17.47;;;5.30;;
10293;SDS011;5192;50.328;7.610;2023-05-24T05:13:24;13.40;;;5.23;;
10293;SDS011;5192;50.328;7.610;2023-05-24T05:15:53;11.37;;;5.10;;
10293;SDS011;5192;50.328;7.610;2023-05-24T05:18:19;12.43;;;5.10;;
10293;SDS011;5192;50.328;7.610;2023-05-24T05:20:47;13.27;;;5.03;;
10293;SDS011;5192;50.328;7.610;2023-05-24T05:23:13;10.33;;;5.33;;
10293;SDS011;5192;50.328;7.610;2023-05-24T05:25:41;12.90;;;4.87;;
10293;SDS011;5192;50.328;7.610;2023-05-24T05:28:09;11.20;;;4.93;;
10293;SDS011;5192;50.328;7.610;2023-05-24T05:30:38;12.07;;;5.50;;
10293;SDS011;5192;50.328;7.610;2023-05-24T05:33:03;16.50;;;5.73;;
10293;SDS011;5192;50.328;7.610;2023-05-24T05:35:31;11.67;;;5.03;;
10293;SDS011;5192;50.328;7.610;2023-05-24T05:37:58;11.27;;;4.73;;
10293;SDS011;5192;50.328;7.610;2023-05-24T05:40:26;13.73;;;5.80;;
10293;SDS011;5192;50.328;7.610;2023-05-24T05:42:52;12.17;;;5.20;;
10293;SDS011;5192;50.328;7.610;2023-05-24T05:45:18;12.30;;;4.83;;
10293;SDS011;5192;50.328;7.610;2023-05-24T05:47:45;11.87;;;5.57;;
10293;SDS011;5192;50.328;7.610;2023-05-24T05:50:12;11.27;;;5.63;;
10293;SDS011;5192;50.328;7.610;2023-05-24T05:52:41;11.53;;;5.07;;
10293;SDS011;5192;50.328;7.610;2023-05-24T05:55:10;11.63;;;5.00;;
10293;SDS011;5192;50.328;7.610;2023-05-24T05:57:36;13.17;;;4.90;;
10293;SDS011;5192;50.328;7.610;2023-05-24T06:00:05;12.40;;;4.60;;
10293;SDS011;5192;50.328;7.610;2023-05-24T06:02:34;13.13;;;4.37;;
10293;SDS011;5192;50.328;7.610;2023-05-24T06:05:02;11.00;;;4.60;;
10293;SDS011;5192;50.328;7.610;2023-05-24T06:07:31;10.10;;;4.00;;
10293;SDS011;5192;50.328;7.610;2023-05-24T06:10:00;10.50;;;4.00;;
10293;SDS011;5192;50.328;7.610;2023-05-24T06:12:27;11.43;;;3.80;;
10293;SDS011;5192;50.328;7.610;2023-05-24T06:14:55;11.40;;;3.70;;
10293;SDS011;5192;50.328;7.610;2023-05-24T06:17:21;12.13;;;4.23;;
10293;SDS011;5192;50.328;7.610;2023-05-24T06:19:51;12.50;;;4.63;;
10293;SDS011;5192;50.328;7.610;2023-05-24T06:22:23;19.00;;;4.00;;
10293;SDS011;5192;50.328;7.610;2023-05-24T06:24:49;12.40;;;4.13;;
10293;SDS011;5192;50.328;7.610;2023-05-24T06:27:16;9.30;;;3.63;;
10293;SDS011;5192;50.328;7.610;2023-05-24T06:29:45;11.63;;;3.73;;
10293;SDS011;5192;50.328;7.610;2023-05-24T06:32:11;14.23;;;3.90;;
10293;SDS011;5192;50.328;7.610;2023-05-24T06:34:37;11.97;;;3.93;;
10293;SDS011;5192;50.328;7.610;2023-05-24T06:37:02;13.33;;;3.53;;
10293;SDS011;5192;50.328;7.610;2023-05-24T06:39:30;10.13;;;3.83;;
10293;SDS011;5192;50.328;7.610;2023-05-24T06:41:57;10.10;;;3.90;;
10293;SDS011;5192;50.328;7.610;2023-05-24T06:44:24;13.83;;;3.57;;
10293;SDS011;5192;50.328;7.610;2023-05-24T06:46:59;13.77;;;4.03;;
10293;SDS011;5192;50.328;7.610;2023-05-24T06:49:27;9.90;;;3.57;;
10293;SDS011;5192;50.328;7.610;2023-05-24T06:51:56;14.80;;;4.30;;
10293;SDS011;5192;50.328;7.610;2023-05-24T06:54:24;9.77;;;4.00;;
10293;SDS011;5192;50.328;7.610;2023-05-24T06:56:51;10.63;;;3.67;;
10293;SDS011;5192;50.328;7.610;2023-05-24T06:59:17;9.07;;;3.20;;
10293;SDS011;5192;50.328;7.610;2023-05-24T07:01:45;11.93;;;4.30;;
10293;SDS011;5192;50.328;7.610;2023-05-24T07:04:19;13.30;;;4.53;;
10293;SDS011;5192;50.328;7.610;2023-05-24T07:06:45;12.33;;;3.77;;
10293;SDS011;5192;50.328;7.610;2023-05-24T07:09:10;15.07;;;4.10;;
10293;SDS011;5192;50.328;7.610;2023-05-24T07:11:38;14.37;;;3.67;;
10293;SDS011;5192;50.328;7.610;2023-05-24T07:14:07;14.57;;;4.03;;
10293;SDS011;5192;50.328;7.610;2023-05-24T07:16:32;10.87;;;4.07;;
10293;SDS011;5192;50.328;7.610;2023-05-24T07:18:59;11.63;;;3.93;;
10293;SDS011;5192;50.328;7.610;2023-05-24T07:21:26;11.17;;;4.33;;
10293;SDS011;5192;50.328;7.610;2023-05-24T07:23:52;11.53;;;3.80;;
10293;SDS011;5192;50.328;7.610;2023-05-24T07:26:19;12.43;;;4.07;;
10293;SDS011;5192;50.328;7.610;2023-05-24T07:28:47;8.87;;;3.57;;
10293;SDS011;5192;50.328;7.610;2023-05-24T07:31:15;9.83;;;4.20;;
10293;SDS011;5192;50.328;7.610;2023-05-24T07:33:40;12.77;;;4.07;;
10293;SDS011;5192;50.328;7.610;2023-05-24T07:36:06;12.60;;;3.90;;
10293;SDS011;5192;50.328;7.610;2023-05-24T07:38:33;15.30;;;5.77;;
10293;SDS011;5192;50.328;7.610;2023-05-24T07:41:02;11.33;;;4.40;;
10293;SDS011;5192;50.328;7.610;2023-05-24T07:43:29;14.90;;;4.43;;
10293;SDS011;5192;50.328;7.610;2023-05-24T07:45:57;9.63;;;4.43;;
10293;SDS011;5192;50.328;7.610;2023-05-24T07:48:23;14.10;;;3.90;;
10293;SDS011;5192;50.328;7.610;2023-05-24T07:50:52;11.03;;;4.53;;
10293;SDS011;5192;50.328;7.610;2023-05-24T07:53:19;15.33;;;4.60;;
10293;SDS011;5192;50.328;7.610;2023-05-24T07:55:46;10.30;;;4.50;;
10293;SDS011;5192;50.328;7.610;2023-05-24T07:58:14;13.17;;;4.00;;
10293;SDS011;5192;50.328;7.610;2023-05-24T08:00:43;11.47;;;4.20;;
10293;SDS011;5192;50.328;7.610;2023-05-24T08:03:10;15.33;;;4.23;;
10293;SDS011;5192;50.328;7.610;2023-05-24T08:05:39;11.60;;;4.80;;
10293;SDS011;5192;50.328;7.610;2023-05-24T08:08:07;15.20;;;4.50;;
10293;SDS011;5192;50.328;7.610;2023-05-24T08:10:35;13.20;;;4.33;;
10293;SDS011;5192;50.328;7.610;2023-05-24T08:13:03;12.87;;;4.80;;
10293;SDS011;5192;50.328;7.610;2023-05-24T08:15:31;10.47;;;4.47;;
10293;SDS011;5192;50.328;7.610;2023-05-24T08:17:58;10.10;;;4.40;;
10293;SDS011;5192;50.328;7.610;2023-05-24T08:20:26;12.77;;;4.20;;
10293;SDS011;5192;50.328;7.610;2023-05-24T08:22:53;6.60;;;2.90;;
10293;SDS011;5192;50.328;7.610;2023-05-24T08:25:19;11.37;;;3.53;;
10293;SDS011;5192;50.328;7.610;2023-05-24T08:27:47;9.43;;;3.97;;
10293;SDS011;5192;50.328;7.610;2023-05-24T08:30:15;10.50;;;3.97;;
10293;SDS011;5192;50.328;7.610;2023-05-24T08:32:41;8.83;;;3.97;;
10293;SDS011;5192;50.328;7.610;2023-05-24T08:35:08;11.30;;;4.23;;
10293;SDS011;5192;50.328;7.610;2023-05-24T08:37:34;10.00;;;4.10;;
10293;SDS011;5192;50.328;7.610;2023-05-24T08:40:01;8.93;;;3.20;;
10293;SDS011;5192;50.328;7.610;2023-05-24T08:42:30;9.33;;;4.17;;
10293;SDS011;5192;50.328;7.610;2023-05-24T08:45:07;11.57;;;4.13;;
10293;SDS011;5192;50.328;7.610;2023-05-24T08:47:36;11.83;;;4.33;;
10293;SDS011;5192;50.328;7.610;2023-05-24T08:50:07;9.97;;;4.20;;
10293;SDS011;5192;50.328;7.610;2023-05-24T08:52:36;12.63;;;5.77;;
10293;SDS011;5192;50.328;7.610;2023-05-24T08:55:04;14.13;;;4.73;;
10293;SDS011;5192;50.328;7.610;2023-05-24T08:57:31;10.87;;;5.00;;
10293;SDS011;5192;50.328;7.610;2023-05-24T08:59:59;13.53;;;4.70;;
10293;SDS011;5192;50.328;7.610;2023-05-24T09:02:27;12.97;;;4.97;;
10293;SDS011;5192;50.328;7.610;2023-05-24T09:04:56;10.73;;;4.53;;
10293;SDS011;5192;50.328;7.610;2023-05-24T09:07:39;16.27;;;5.40;;
10293;SDS011;5192;50.328;7.610;2023-05-24T09:10:10;17.13;;;5.97;;
10293;SDS011;5192;50.328;7.610;2023-05-24T09:12:38;14.73;;;5.53;;
10293;SDS011;5192;50.328;7.610;2023-05-24T09:15:08;12.77;;;5.77;;
10293;SDS011;5192;50.328;7.610;2023-05-24T09:17:34;14.00;;;5.13;;
10293;SDS011;5192;50.328;7.610;2023-05-24T09:20:00;9.33;;;5.40;;
10293;SDS011;5192;50.328;7.610;2023-05-24T09:22:32;11.43;;;5.27;;
10293;SDS011;5192;50.328;7.610;2023-05-24T09:25:04;13.47;;;5.33;;
10293;SDS011;5192;50.328;7.610;2023-05-24T09:27:47;13.20;;;5.43;;
10293;SDS011;5192;50.328;7.610;2023-05-24T09:30:17;12.63;;;5.23;;
10293;SDS011;5192;50.328;7.610;2023-05-24T09:32:54;12.77;;;4.77;;
10293;SDS011;5192;50.328;7.610;2023-05-24T09:35:23;13.47;;;5.43;;
10293;SDS011;5192;50.328;7.610;2023-05-24T09:37:58;13.33;;;5.77;;
10293;SDS011;5192;50.328;7.610;2023-05-24T09:40:26;10.03;;;5.77;;
10293;SDS011;5192;50.328;7.610;2023-05-24T09:43:04;14.20;;;5.53;;
10293;SDS011;5192;50.328;7.610;2023-05-24T09:45:44;11.47;;;5.10;;
10293;SDS011;5192;50.328;7.610;2023-05-24T09:48:16;15.07;;;5.27;;
10293;SDS011;5192;50.328;7.610;2023-05-24T09:50:43;13.73;;;5.50;;
10293;SDS011;5192;50.328;7.610;2023-05-24T09:53:22;15.33;;;5.33;;
10293;SDS011;5192;50.328;7.610;2023-05-24T09:55:53;12.23;;;4.93;;
10293;SDS011;5192;50.328;7.610;2023-05-24T09:58:20;14.67;;;5.27;;
10293;SDS011;5192;50.328;7.610;2023-05-24T10:00:48;13.53;;;4.97;;
10293;SDS011;5192;50.328;7.610;2023-05-24T10:03:14;13.67;;;4.93;;
10293;SDS011;5192;50.328;7.610;2023-05-24T10:05:42;14.77;;;5.07;;
10293;SDS011;5192;50.328;7.610;2023-05-24T10:08:10;11.57;;;5.20;;
10293;SDS011;5192;50.328;7.610;2023-05-24T10:10:39;13.40;;;5.17;;
10293;SDS011;5192;50.328;7.610;2023-05-24T10:13:08;12.60;;;5.03;;
10293;SDS011;5192;50.328;7.610;2023-05-24T10:15:34;12.30;;;5.30;;
10293;SDS011;5192;50.328;7.610;2023-05-24T10:18:01;12.43;;;5.00;;
10293;SDS011;5192;50.328;7.610;2023-05-24T10:20:32;16.83;;;5.33;;
10293;SDS011;5192;50.328;7.610;2023-05-24T10:23:00;12.47;;;5.17;;
10293;SDS011;5192;50.328;7.610;2023-05-24T10:25:28;11.77;;;5.17;;
10293;SDS011;5192;50.328;7.610;2023-05-24T10:28:00;11.97;;;4.97;;
10293;SDS011;5192;50.328;7.610;2023-05-24T10:33:21;15.87;;;4.70;;
10293;SDS011;5192;50.328;7.610;2023-05-24T10:35:48;14.67;;;4.30;;
10293;SDS011;5192;50.328;7.610;2023-05-24T10:38:15;10.23;;;3.93;;
10293;SDS011;5192;50.328;7.610;2023-05-24T10:40:45;9.43;;;4.53;;
10293;SDS011;5192;50.328;7.610;2023-05-24T10:43:12;9.17;;;3.70;;
10293;SDS011;5192;50.328;7.610;2023-05-24T10:45:40;7.93;;;3.93;;
10293;SDS011;5192;50.328;7.610;2023-05-24T10:50:54;11.10;;;4.43;;
10293;SDS011;5192;50.328;7.610;2023-05-24T10:53:25;8.90;;;4.00;;
10293;SDS011;5192;50.328;7.610;2023-05-24T10:56:00;9.93;;;4.07;;
10293;SDS011;5192;50.328;7.610;2023-05-24T11:01:29;10.80;;;4.30;;
10293;SDS011;5192;50.328;7.610;2023-05-24T11:06:55;13.13;;;4.53;;
10293;SDS011;5192;50.328;7.610;2023-05-24T11:09:26;11.80;;;3.90;;
10293;SDS011;5192;50.328;7.610;2023-05-24T11:12:00;9.53;;;3.97;;
10293;SDS011;5192;50.328;7.610;2023-05-24T11:14:29;10.17;;;3.53;;
10293;SDS011;5192;50.328;7.610;2023-05-24T11:16:59;11.17;;;3.87;;
10293;SDS011;5192;50.328;7.610;2023-05-24T11:19:36;13.83;;;3.60;;
10293;SDS011;5192;50.328;7.610;2023-05-24T11:22:12;8.23;;;3.27;;
10293;SDS011;5192;50.328;7.610;2023-05-24T11:24:44;10.17;;;3.97;;
10293;SDS011;5192;50.328;7.610;2023-05-24T11:27:12;11.60;;;4.20;;
10293;SDS011;5192;50.328;7.610;2023-05-24T11:29:43;10.80;;;4.17;;
10293;SDS011;5192;50.328;7.610;2023-05-24T11:32:20;10.17;;;3.87;;
10293;SDS011;5192;50.328;7.610;2023-05-24T11:34:47;9.90;;;3.80;;
10293;SDS011;5192;50.328;7.610;2023-05-24T11:37:15;8.13;;;3.50;;
10293;SDS011;5192;50.328;7.610;2023-05-24T11:39:43;9.00;;;3.90;;
10293;SDS011;5192;50.328;7.610;2023-05-24T11:42:19;10.53;;;3.70;;
10293;SDS011;5192;50.328;7.610;2023-05-24T11:44:47;12.50;;;4.33;;
10293;SDS011;5192;50.328;7.610;2023-05-24T11:47:15;8.67;;;3.80;;
10293;SDS011;5192;50.328;7.610;2023-05-24T11:49:48;10.47;;;4.03;;
10293;SDS011;5192;50.328;7.610;2023-05-24T11:52:18;8.80;;;3.67;;
10293;SDS011;5192;50.328;7.610;2023-05-24T11:54:47;7.90;;;4.10;;
10293;SDS011;5192;50.328;7.610;2023-05-24T11:57:13;11.90;;;3.80;;
10293;SDS011;5192;50.328;7.610;2023-05-24T11:59:43;10.07;;;3.57;;
10293;SDS011;5192;50.328;7.610;2023-05-24T12:02:11;11.77;;;3.97;;
10293;SDS011;5192;50.328;7.610;2023-05-24T12:04:38;7.67;;;3.63;;
10293;SDS011;5192;50.328;7.610;2023-05-24T12:07:09;11.40;;;4.00;;
10293;SDS011;5192;50.328;7.610;2023-05-24T12:09:37;8.93;;;4.00;;
10293;SDS011;5192;50.328;7.610;2023-05-24T12:12:06;8.87;;;4.53;;
10293;SDS011;5192;50.328;7.610;2023-05-24T12:14:33;10.77;;;4.50;;
10293;SDS011;5192;50.328;7.610;2023-05-24T12:17:00;7.87;;;3.70;;
10293;SDS011;5192;50.328;7.610;2023-05-24T12:19:31;7.40;;;4.10;;
10293;SDS011;5192;50.328;7.610;2023-05-24T12:22:06;10.50;;;4.00;;
10293;SDS011;5192;50.328;7.610;2023-05-24T12:24:33;9.60;;;4.10;;
10293;SDS011;5192;50.328;7.610;2023-05-24T12:27:00;9.67;;;4.83;;
10293;SDS011;5192;50.328;7.610;2023-05-24T12:29:38;10.50;;;4.00;;
10293;SDS011;5192;50.328;7.610;2023-05-24T12:32:06;9.53;;;3.90;;
10293;SDS011;5192;50.328;7.610;2023-05-24T12:34:40;7.97;;;3.43;;
10293;SDS011;5192;50.328;7.610;2023-05-24T12:37:07;8.13;;;4.07;;
10293;SDS011;5192;50.328;7.610;2023-05-24T12:39:37;8.13;;;4.17;;
10293;SDS011;5192;50.328;7.610;2023-05-24T12:42:07;9.53;;;3.87;;
10293;SDS011;5192;50.328;7.610;2023-05-24T12:44:37;9.03;;;4.03;;
10293;SDS011;5192;50.328;7.610;2023-05-24T12:47:06;9.60;;;4.00;;
10293;SDS011;5192;50.328;7.610;2023-05-24T12:49:34;8.07;;;3.67;;
10293;SDS011;5192;50.328;7.610;2023-05-24T12:52:00;7.87;;;3.67;;
10293;SDS011;5192;50.328;7.610;2023-05-24T12:54:28;9.80;;;3.90;;
10293;SDS011;5192;50.328;7.610;2023-05-24T12:56:56;7.33;;;4.00;;
10293;SDS011;5192;50.328;7.610;2023-05-24T12:59:25;8.93;;;4.07;;
10293;SDS011;5192;50.328;7.610;2023-05-24T13:01:53;10.20;;;4.00;;
10293;SDS011;5192;50.328;7.610;2023-05-24T13:04:20;8.53;;;3.90;;
10293;SDS011;5192;50.328;7.610;2023-05-24T13:06:48;9.23;;;3.90;;
10293;SDS011;5192;50.328;7.610;2023-05-24T13:09:18;6.03;;;3.50;;
10293;SDS011;5192;50.328;7.610;2023-05-24T13:12:05;9.73;;;3.87;;
10293;SDS011;5192;50.328;7.610;2023-05-24T13:14:35;9.13;;;4.27;;
10293;SDS011;5192;50.328;7.610;2023-05-24T13:17:00;9.17;;;3.80;;
10293;SDS011;5192;50.328;7.610;2023-05-24T13:19:27;11.13;;;4.47;;
10293;SDS011;5192;50.328;7.610;2023-05-24T13:21:55;8.60;;;4.00;;
10293;SDS011;5192;50.328;7.610;2023-05-24T13:24:22;11.13;;;4.20;;
10293;SDS011;5192;50.328;7.610;2023-05-24T13:26:49;10.37;;;4.50;;
10293;SDS011;5192;50.328;7.610;2023-05-24T13:29:17;9.27;;;4.53;;
10293;SDS011;5192;50.328;7.610;2023-05-24T13:31:44;8.97;;;4.73;;
10293;SDS011;5192;50.328;7.610;2023-05-24T13:34:11;11.20;;;4.23;;
10293;SDS011;5192;50.328;7.610;2023-05-24T13:36:38;13.33;;;4.40;;
10293;SDS011;5192;50.328;7.610;2023-05-24T13:39:08;8.47;;;4.60;;
10293;SDS011;5192;50.328;7.610;2023-05-24T13:41:38;9.17;;;3.90;;
10293;SDS011;5192;50.328;7.610;2023-05-24T13:44:05;11.00;;;4.17;;
10293;SDS011;5192;50.328;7.610;2023-05-24T13:46:31;8.77;;;3.90;;
10293;SDS011;5192;50.328;7.610;2023-05-24T13:49:01;7.10;;;4.30;;
10293;SDS011;5192;50.328;7.610;2023-05-24T13:51:30;8.10;;;4.27;;
10293;SDS011;5192;50.328;7.610;2023-05-24T13:53:58;9.13;;;4.03;;
10293;SDS011;5192;50.328;7.610;2023-05-24T13:56:27;11.43;;;4.23;;
10293;SDS011;5192;50.328;7.610;2023-05-24T13:59:02;9.73;;;4.17;;
10293;SDS011;5192;50.328;7.610;2023-05-24T14:01:28;9.83;;;4.37;;
10293;SDS011;5192;50.328;7.610;2023-05-24T14:03:55;10.13;;;4.30;;
10293;SDS011;5192;50.328;7.610;2023-05-24T14:06:22;10.07;;;4.10;;
10293;SDS011;5192;50.328;7.610;2023-05-24T14:08:50;9.27;;;4.43;;
10293;SDS011;5192;50.328;7.610;2023-05-24T14:11:17;10.53;;;4.90;;
10293;SDS011;5192;50.328;7.610;2023-05-24T14:13:48;10.10;;;4.67;;
10293;SDS011;5192;50.328;7.610;2023-05-24T14:16:14;13.93;;;6.03;;
10293;SDS011;5192;50.328;7.610;2023-05-24T14:18:44;10.57;;;4.87;;
10293;SDS011;5192;50.328;7.610;2023-05-24T14:21:14;12.47;;;5.20;;
10293;SDS011;5192;50.328;7.610;2023-05-24T14:23:46;10.97;;;5.30;;
10293;SDS011;5192;50.328;7.610;2023-05-24T14:26:13;13.50;;;6.53;;
10293;SDS011;5192;50.328;7.610;2023-05-24T14:28:46;14.60;;;6.23;;
10293;SDS011;5192;50.328;7.610;2023-05-24T14:31:13;10.73;;;5.33;;
10293;SDS011;5192;50.328;7.610;2023-05-24T14:33:40;7.87;;;3.97;;
10293;SDS011;5192;50.328;7.610;2023-05-24T14:36:08;12.20;;;4.13;;
10293;SDS011;5192;50.328;7.610;2023-05-24T14:38:37;13.73;;;4.43;;
10293;SDS011;5192;50.328;7.610;2023-05-24T14:41:04;10.60;;;3.93;;
10293;SDS011;5192;50.328;7.610;2023-05-24T14:43:32;8.50;;;3.93;;
10293;SDS011;5192;50.328;7.610;2023-05-24T14:45:59;9.97;;;3.83;;
10293;SDS011;5192;50.328;7.610;2023-05-24T14:48:26;7.57;;;4.13;;
10293;SDS011;5192;50.328;7.610;2023-05-24T14:50:52;11.07;;;3.90;;
10293;SDS011;5192;50.328;7.610;2023-05-24T14:53:20;8.47;;;3.47;;
10293;SDS011;5192;50.328;7.610;2023-05-24T14:55:48;8.83;;;4.30;;
10293;SDS011;5192;50.328;7.610;2023-05-24T14:58:14;8.17;;;4.17;;
10293;SDS011;5192;50.328;7.610;2023-05-24T15:00:41;10.40;;;4.17;;
10293;SDS011;5192;50.328;7.610;2023-05-24T15:03:08;9.23;;;3.80;;
10293;SDS011;5192;50.328;7.610;2023-05-24T15:05:36;9.63;;;3.73;;
10293;SDS011;5192;50.328;7.610;2023-05-24T15:08:11;9.97;;;3.80;;
10293;SDS011;5192;50.328;7.610;2023-05-24T15:10:37;12.00;;;4.37;;
10293;SDS011;5192;50.328;7.610;2023-05-24T15:13:09;10.03;;;4.03;;
10293;SDS011;5192;50.328;7.610;2023-05-24T15:15:35;9.33;;;3.60;;
10293;SDS011;5192;50.328;7.610;2023-05-24T15:18:03;7.17;;;3.63;;
10293;SDS011;5192;50.328;7.610;2023-05-24T15:20:32;10.90;;;3.63;;
10293;SDS011;5192;50.328;7.610;2023-05-24T15:23:02;8.90;;;3.80;;
10293;SDS011;5192;50.328;7.610;2023-05-24T15:25:30;7.67;;;3.63;;
10293;SDS011;5192;50.328;7.610;2023-05-24T15:27:56;8.23;;;3.77;;
10293;SDS011;5192;50.328;7.610;2023-05-24T15:30:23;9.97;;;3.90;;